Terminal Aerodrome Forecast
Issued by NWS Caribou, ME

Home | Current Version | Previous Version | Text Only | Print | Product List | Glossary On
Versions: 1 2 3 4 5 6 7 8 9 10 11 12 13 14 15
302
FTUS41 KCAR 221127
TAFBGR
TAF
KBGR 221127Z 2212/2312 18007KT P6SM BKN070
     FM221500 21010KT P6SM VCSH SCT025 BKN050
     FM221800 27010G20KT P6SM BKN045
     FM230000 32007KT P6SM BKN100=

USA.gov is the U.S. government's official web portal to all federal, state and local government web resources and services.